Time;durP1;ratioP1;P1;durP2;ratioP2;P2;SDS_P1;SDS_P2;PMS_P1;PMS_P2;Temp;Humidity;BMP_temperature;BMP_pressure;BME280_temperature;BME280_humidity;BME280_pressure;Samples;Min_cycle;Max_cycle;Signal;HPM_P1;HPM_P2
2021/03/17 00:02:12;;;;;;;3.00;1.97;;;6.10;82.80;;;;;;6214739;23;19996;-74
2021/03/17 00:04:38;;;;;;;2.80;2.07;;;6.10;82.20;;;;;;6212470;23;20216;-74
2021/03/17 00:07:04;;;;;;;3.97;1.83;;;6.10;82.40;;;;;;6214471;23;19996;-74
2021/03/17 00:09:29;;;;;;;3.17;2.23;;;6.00;82.50;;;;;;6212451;23;20001;-73
2021/03/17 00:11:56;;;;;;;3.13;2.10;;;6.00;82.70;;;;;;6214506;23;19992;-72
2021/03/17 00:14:21;;;;;;;2.93;2.00;;;6.00;82.70;;;;;;6212043;23;20112;-73
2021/03/17 00:16:47;;;;;;;3.23;1.70;;;6.00;83.00;;;;;;6212637;23;20036;-73
2021/03/17 00:19:13;;;;;;;2.80;1.67;;;6.00;83.10;;;;;;6213105;23;20047;-73
2021/03/17 00:21:38;;;;;;;2.70;1.80;;;6.00;83.30;;;;;;6212772;23;20328;-73
2021/03/17 00:24:05;;;;;;;3.07;1.97;;;5.90;83.40;;;;;;6214451;23;20001;-72
2021/03/17 00:26:31;;;;;;;2.83;1.60;;;5.90;83.60;;;;;;6212380;23;20084;-73
2021/03/17 00:28:57;;;;;;;3.33;1.63;;;5.90;83.70;;;;;;6214971;23;20420;-73
2021/03/17 00:31:22;;;;;;;2.00;1.50;;;5.80;83.70;;;;;;6215928;23;20451;-77
2021/03/17 00:33:48;;;;;;;2.17;1.50;;;5.80;83.80;;;;;;6214372;23;20004;-75
2021/03/17 00:36:13;;;;;;;2.40;1.50;;;5.80;83.80;;;;;;6214522;23;20020;-75
2021/03/17 00:38:39;;;;;;;2.57;1.70;;;5.80;83.90;;;;;;6214488;23;20828;-74
2021/03/17 00:41:05;;;;;;;2.00;1.50;;;5.80;83.70;;;;;;6215525;23;20036;-74
2021/03/17 00:43:30;;;;;;;2.20;1.60;;;5.80;83.70;;;;;;6214603;23;20024;-75
2021/03/17 00:45:56;;;;;;;2.13;1.63;;;5.70;83.90;;;;;;6215504;23;20005;-75
2021/03/17 00:48:21;;;;;;;2.63;1.57;;;5.70;84.50;;;;;;6215074;23;20502;-76
2021/03/17 00:50:47;;;;;;;2.53;1.80;;;5.80;83.90;;;;;;6214919;23;20082;-73
2021/03/17 00:53:13;;;;;;;1.47;1.30;;;5.70;83.70;;;;;;6214985;23;20087;-75
2021/03/17 00:55:38;;;;;;;2.43;1.77;;;5.80;83.90;;;;;;6215319;23;19996;-76
2021/03/17 00:58:04;;;;;;;2.40;1.70;;;5.80;83.90;;;;;;6214537;23;20012;-74
2021/03/17 01:00:29;;;;;;;3.03;1.90;;;5.70;84.10;;;;;;6214716;23;20463;-73
2021/03/17 01:02:55;;;;;;;2.50;1.77;;;5.70;84.30;;;;;;6216489;23;20443;-73
2021/03/17 01:05:30;;;;;;;2.50;1.77;;;5.70;84.40;;;;;;6214438;23;20008;-75
2021/03/17 01:07:57;;;;;;;2.03;1.80;;;5.70;84.50;;;;;;6214615;23;20009;-73
2021/03/17 01:10:52;;;;;;;2.30;1.67;;;5.70;84.50;;;;;;6215877;23;20066;-76
2021/03/17 01:13:18;;;;;;;2.73;1.80;;;5.70;84.50;;;;;;6216256;23;20064;-73
2021/03/17 01:15:44;;;;;;;2.37;1.70;;;5.70;84.50;;;;;;6213806;23;20020;-73
2021/03/17 01:18:10;;;;;;;2.00;1.60;;;5.60;84.60;;;;;;6214373;23;20424;-73
2021/03/17 01:20:37;;;;;;;2.57;1.43;;;5.60;84.60;;;;;;6215349;23;20032;-74
2021/03/17 01:23:03;;;;;;;3.23;2.03;;;5.60;84.70;;;;;;6214462;23;20008;-73
2021/03/17 01:25:28;;;;;;;2.93;2.03;;;5.60;84.80;;;;;;6214760;23;20072;-74
2021/03/17 01:27:54;;;;;;;3.10;1.87;;;5.60;85.10;;;;;;6215809;23;20034;-73
2021/03/17 01:30:27;;;;;;;2.50;1.70;;;5.50;85.00;;;;;;6214124;23;20000;-73
2021/03/17 01:32:53;;;;;;;2.90;1.83;;;5.50;85.10;;;;;;6214187;23;20019;-73
2021/03/17 01:35:19;;;;;;;2.70;2.00;;;5.60;85.20;;;;;;6215670;23;20024;-73
2021/03/17 01:37:45;;;;;;;4.03;1.90;;;5.60;85.00;;;;;;6213200;23;20017;-73
2021/03/17 01:40:13;;;;;;;3.00;1.60;;;5.60;85.10;;;;;;6215825;23;20007;-73
2021/03/17 01:42:40;;;;;;;3.00;1.57;;;5.50;85.00;;;;;;6213782;23;20031;-73
2021/03/17 01:45:13;;;;;;;2.30;1.70;;;5.50;85.30;;;;;;6215955;23;20001;-73
2021/03/17 01:47:40;;;;;;;2.37;1.83;;;5.40;85.10;;;;;;6213538;23;20012;-74
2021/03/17 01:50:13;;;;;;;2.43;1.30;;;5.40;85.40;;;;;;6214615;23;20001;-73
2021/03/17 01:52:39;;;;;;;1.60;1.33;;;5.50;84.30;;;;;;6215230;23;19997;-73
2021/03/17 01:55:07;;;;;;;2.53;1.27;;;5.40;83.90;;;;;;6214138;23;20363;-73
2021/03/17 01:57:33;;;;;;;1.43;1.17;;;5.40;83.60;;;;;;6213189;23;20020;-73
2021/03/17 02:00:00;;;;;;;1.40;1.00;;;5.40;83.70;;;;;;6215790;23;20070;-72
2021/03/17 02:02:26;;;;;;;2.23;1.23;;;5.50;83.60;;;;;;6214772;23;19992;-75
2021/03/17 02:04:51;;;;;;;1.07;0.80;;;5.40;83.50;;;;;;6213959;23;20099;-74
2021/03/17 02:07:17;;;;;;;1.53;1.03;;;5.50;84.10;;;;;;6213890;23;20423;-73
2021/03/17 02:09:43;;;;;;;1.70;1.10;;;5.40;83.20;;;;;;6213077;23;20000;-74
2021/03/17 02:12:35;;;;;;;1.50;0.97;;;5.50;83.20;;;;;;6213887;23;20005;-73
2021/03/17 02:15:20;;;;;;;0.93;0.73;;;5.40;83.30;;;;;;6215184;23;20043;-73
2021/03/17 02:17:49;;;;;;;1.30;0.97;;;5.40;83.30;;;;;;6214448;23;20000;-73
2021/03/17 02:20:58;;;;;;;1.00;0.90;;;5.50;83.10;;;;;;6213792;23;20035;-73
2021/03/17 02:23:47;;;;;;;2.70;0.90;;;5.50;83.00;;;;;;6214065;23;20007;-74
2021/03/17 02:26:22;;;;;;;1.43;1.17;;;5.50;82.90;;;;;;6214004;23;20377;-73
2021/03/17 02:29:25;;;;;;;4.37;1.17;;;5.50;83.00;;;;;;6214452;23;20084;-73
2021/03/17 02:32:07;;;;;;;1.63;1.20;;;5.50;83.40;;;;;;6213739;23;20086;-73
2021/03/17 02:34:35;;;;;;;;;;;5.50;83.60;;;;;;6213962;23;20008;-73
2021/03/17 02:37:06;;;;;;;2.17;1.13;;;5.50;84.00;;;;;;6214329;23;19994;-73
2021/03/17 02:39:41;;;;;;;2.03;1.30;;;5.60;83.80;;;;;;6215193;23;20012;-73
2021/03/17 02:42:09;;;;;;;1.57;1.30;;;5.50;83.80;;;;;;6215691;23;19993;-73
2021/03/17 02:44:43;;;;;;;1.87;1.47;;;5.50;83.80;;;;;;6213424;23;20075;-73
2021/03/17 02:47:09;;;;;;;3.00;1.20;;;5.60;84.00;;;;;;6214113;23;20442;-73
2021/03/17 02:49:38;;;;;;;1.73;1.27;;;5.50;83.90;;;;;;6213141;23;20000;-74
2021/03/17 02:52:05;;;;;;;2.23;1.40;;;5.50;83.90;;;;;;6213405;23;20028;-73
2021/03/17 02:54:33;;;;;;;1.40;1.10;;;5.50;84.30;;;;;;6212454;23;20323;-73
2021/03/17 02:57:21;;;;;;;1.63;1.30;;;5.40;84.40;;;;;;6214711;23;20432;-74
2021/03/17 02:59:53;;;;;;;1.60;1.20;;;5.40;84.20;;;;;;6214667;23;20159;-74
2021/03/17 03:02:21;;;;;;;1.40;1.10;;;5.50;84.20;;;;;;6215440;23;20067;-73
2021/03/17 03:04:49;;;;;;;1.90;1.30;;;5.40;84.40;;;;;;6212678;23;20001;-74
2021/03/17 03:07:15;;;;;;;1.33;1.13;;;5.40;84.40;;;;;;6214886;23;20065;-73
2021/03/17 03:09:42;;;;;;;1.50;1.20;;;5.40;84.60;;;;;;6212406;23;20003;-74
2021/03/17 03:12:10;;;;;;;2.43;1.40;;;5.50;84.50;;;;;;6214759;23;20075;-75
2021/03/17 03:14:37;;;;;;;2.53;1.40;;;5.50;84.20;;;;;;6212345;23;20083;-75
2021/03/17 03:17:05;;;;;;;2.47;1.70;;;5.60;84.20;;;;;;6213298;23;20042;-74
2021/03/17 03:19:35;;;;;;;2.17;1.40;;;5.60;84.10;;;;;;6212227;23;20088;-74
2021/03/17 03:22:02;;;;;;;1.33;1.20;;;5.60;84.00;;;;;;6214634;23;20007;-74
2021/03/17 03:24:28;;;;;;;2.40;1.60;;;5.60;83.90;;;;;;6212606;23;20492;-76
2021/03/17 03:26:56;;;;;;;1.73;1.33;;;5.60;84.00;;;;;;6212628;23;20012;-74
2021/03/17 03:29:23;;;;;;;2.00;1.33;;;5.60;84.10;;;;;;6213140;23;20013;-73
2021/03/17 03:31:48;;;;;;;1.83;1.23;;;5.50;84.30;;;;;;6212548;23;20035;-74
2021/03/17 03:34:15;;;;;;;2.47;1.30;;;5.50;84.00;;;;;;6213204;23;20001;-74
2021/03/17 03:36:42;;;;;;;2.00;1.43;;;5.50;84.40;;;;;;6212089;23;20091;-74
2021/03/17 03:39:08;;;;;;;1.73;1.53;;;5.60;84.20;;;;;;6214821;23;20016;-73
2021/03/17 03:41:34;;;;;;;2.67;1.57;;;5.60;84.10;;;;;;6213713;23;20004;-74
2021/03/17 03:43:59;;;;;;;2.00;1.40;;;5.60;84.10;;;;;;6212862;23;20436;-74
2021/03/17 03:46:25;;;;;;;2.10;1.53;;;5.60;84.00;;;;;;6213402;23;20004;-76
2021/03/17 03:48:51;;;;;;;1.90;1.40;;;5.50;84.00;;;;;;6212340;23;20029;-74
2021/03/17 03:51:21;;;;;;;3.17;1.50;;;5.50;84.30;;;;;;6214228;23;20071;-73
2021/03/17 03:54:09;;;;;;;2.33;1.40;;;5.50;84.30;;;;;;6212252;23;20143;-73
2021/03/17 03:57:08;;;;;;;3.33;2.00;;;5.50;84.20;;;;;;6201215;23;20011;-74
2021/03/17 03:59:45;;;;;;;3.03;1.50;;;5.50;84.50;;;;;;6204900;23;20023;-74
2021/03/17 04:02:26;;;;;;;4.17;1.60;;;5.50;84.50;;;;;;6213555;23;20000;-73
2021/03/17 04:04:53;;;;;;;4.17;1.80;;;5.50;84.40;;;;;;6212631;23;19997;-73
2021/03/17 04:07:20;;;;;;;4.33;1.73;;;5.50;84.40;;;;;;6214708;23;20016;-73
2021/03/17 04:09:52;;;;;;;3.63;1.60;;;5.60;84.30;;;;;;6212511;23;20001;-73
2021/03/17 04:12:21;;;;;;;5.10;2.13;;;5.50;84.30;;;;;;6212801;23;20044;-73
2021/03/17 04:14:50;;;;;;;3.37;2.10;;;5.50;84.40;;;;;;6213457;23;20011;-73
2021/03/17 04:17:43;;;;;;;3.40;2.00;;;5.50;84.40;;;;;;6212416;23;20051;-74
2021/03/17 04:20:13;;;;;;;3.50;1.60;;;5.50;84.40;;;;;;6211751;23;20009;-74
2021/03/17 04:22:39;;;;;;;2.77;1.70;;;5.60;84.10;;;;;;6211962;23;20000;-73
2021/03/17 04:25:11;;;;;;;4.20;2.10;;;5.60;84.70;;;;;;6214608;23;20004;-73
2021/03/17 04:27:37;;;;;;;3.60;1.67;;;5.60;84.00;;;;;;6214070;23;20005;-74
2021/03/17 04:30:06;;;;;;;3.37;1.73;;;5.60;84.00;;;;;;6213054;23;20055;-73
2021/03/17 04:32:33;;;;;;;3.43;2.00;;;5.60;84.10;;;;;;6212552;23;20016;-74
2021/03/17 04:35:00;;;;;;;4.13;1.73;;;5.60;84.00;;;;;;6215012;23;20024;-74
2021/03/17 04:37:28;;;;;;;3.03;1.77;;;5.50;84.20;;;;;;6212958;23;20022;-73
2021/03/17 04:39:54;;;;;;;2.40;1.43;;;5.50;84.60;;;;;;6214330;23;20047;-73
2021/03/17 04:42:21;;;;;;;2.40;1.87;;;5.50;84.90;;;;;;6214655;23;19997;-73
2021/03/17 04:44:48;;;;;;;5.00;1.50;;;5.40;85.20;;;;;;6212223;23;20012;-74
2021/03/17 04:47:14;;;;;;;3.13;2.00;;;5.40;85.50;;;;;;6214517;23;20008;-73
2021/03/17 04:49:44;;;;;;;2.27;1.60;;;5.40;85.60;;;;;;6212325;23;20005;-74
2021/03/17 04:52:13;;;;;;;3.10;1.80;;;5.40;85.80;;;;;;6213083;23;20087;-74
2021/03/17 04:54:39;;;;;;;2.37;1.70;;;5.50;86.30;;;;;;6212332;23;20019;-74
2021/03/17 04:57:07;;;;;;;2.73;1.80;;;5.40;85.80;;;;;;6212548;23;20005;-73
2021/03/17 04:59:35;;;;;;;8.33;2.20;;;5.40;85.60;;;;;;6212059;23;20024;-76
2021/03/17 05:02:02;;;;;;;5.03;2.60;;;5.50;85.40;;;;;;6214541;23;20023;-73
2021/03/17 05:04:28;;;;;;;7.57;3.23;;;5.60;84.90;;;;;;6212657;23;20004;-73
2021/03/17 05:06:55;;;;;;;8.60;3.40;;;5.50;84.80;;;;;;6212409;23;20099;-73
2021/03/17 05:09:22;;;;;;;7.63;4.33;;;5.50;85.30;;;;;;6213094;23;20012;-73
2021/03/17 05:11:48;;;;;;;6.90;3.30;;;5.50;85.30;;;;;;6213854;23;19997;-74
2021/03/17 05:14:14;;;;;;;6.13;3.10;;;5.50;85.40;;;;;;6212852;23;20055;-73
2021/03/17 05:16:41;;;;;;;3.50;2.10;;;5.40;85.80;;;;;;6215319;23;20308;-74
2021/03/17 05:19:08;;;;;;;2.47;1.93;;;5.40;86.20;;;;;;6216111;23;20000;-73
2021/03/17 05:21:35;;;;;;;3.43;1.93;;;5.50;86.20;;;;;;6215555;23;20001;-74
2021/03/17 05:24:02;;;;;;;3.17;2.10;;;5.60;85.50;;;;;;6214925;23;20004;-73
2021/03/17 05:26:30;;;;;;;2.37;1.63;;;5.50;85.70;;;;;;6216143;23;20055;-73
2021/03/17 05:28:59;;;;;;;3.90;2.20;;;5.50;85.90;;;;;;6214140;23;20023;-74
2021/03/17 05:31:26;;;;;;;3.53;1.90;;;5.50;86.40;;;;;;6214290;23;20001;-73
2021/03/17 05:33:52;;;;;;;3.83;1.93;;;5.50;86.70;;;;;;6213639;23;20339;-73
2021/03/17 05:36:18;;;;;;;3.97;2.47;;;5.50;86.70;;;;;;6214247;23;20012;-73
2021/03/17 05:38:43;;;;;;;3.37;2.20;;;5.50;86.90;;;;;;6213500;23;20420;-73
2021/03/17 05:41:09;;;;;;;4.00;2.17;;;5.60;86.70;;;;;;6215818;23;20051;-73
2021/03/17 05:43:37;;;;;;;4.70;2.00;;;5.50;86.60;;;;;;6213871;23;20027;-75
2021/03/17 05:46:04;;;;;;;5.10;2.70;;;5.50;87.00;;;;;;6214292;23;20004;-73
2021/03/17 05:48:33;;;;;;;6.10;3.27;;;5.60;86.90;;;;;;6213925;23;20062;-76
2021/03/17 05:51:00;;;;;;;5.53;3.73;;;5.50;87.10;;;;;;6214396;23;20004;-73
2021/03/17 05:53:26;;;;;;;5.47;3.57;;;5.50;87.20;;;;;;6215920;23;20001;-73
2021/03/17 05:55:59;;;;;;;4.27;2.70;;;5.50;87.20;;;;;;6213854;23;20294;-73
2021/03/17 05:58:26;;;;;;;5.27;2.90;;;5.50;86.90;;;;;;6214328;23;20020;-73
2021/03/17 06:00:51;;;;;;;5.40;3.23;;;5.60;86.70;;;;;;6213248;23;20011;-73
2021/03/17 06:03:18;;;;;;;6.50;3.10;;;5.60;86.70;;;;;;6215872;23;20000;-73
2021/03/17 06:05:47;;;;;;;5.83;3.23;;;5.60;86.80;;;;;;6213704;23;20008;-73
2021/03/17 06:08:18;;;;;;;8.53;4.37;;;5.60;86.70;;;;;;6214319;23;20331;-73
2021/03/17 06:10:44;;;;;;;7.40;4.07;;;5.60;86.10;;;;;;6213596;23;20001;-74
2021/03/17 06:13:15;;;;;;;9.60;4.10;;;5.60;86.00;;;;;;6216002;23;20004;-74
2021/03/17 06:16:00;;;;;;;6.80;3.73;;;5.70;86.00;;;;;;6214820;23;20027;-73
2021/03/17 06:18:49;;;;;;;6.10;3.53;;;5.70;86.10;;;;;;6214036;23;20008;-73
2021/03/17 06:21:18;;;;;;;8.87;4.00;;;5.80;86.10;;;;;;6212333;23;20055;-74
2021/03/17 06:23:45;;;;;;;8.13;4.20;;;5.70;85.80;;;;;;6214613;23;20051;-74
2021/03/17 06:26:11;;;;;;;9.57;4.83;;;5.70;86.00;;;;;;6214912;23;20080;-73
2021/03/17 06:28:38;;;;;;;8.43;4.17;;;5.70;86.10;;;;;;6212602;23;20055;-76
2021/03/17 06:31:04;;;;;;;9.10;3.97;;;5.80;86.00;;;;;;6215255;23;20001;-73
2021/03/17 06:33:30;;;;;;;9.37;4.50;;;5.70;86.10;;;;;;6213752;23;20039;-72
2021/03/17 06:36:46;;;;;;;7.33;4.23;;;5.80;86.10;;;;;;6212295;23;20434;-72
2021/03/17 06:39:11;;;;;;;9.93;4.83;;;5.80;85.80;;;;;;6123033;23;20508;-73
2021/03/17 06:41:52;;;;;;;10.83;4.40;;;5.80;85.70;;;;;;6097299;23;20006;-73
2021/03/17 06:44:22;;;;;;;10.17;4.90;;;5.70;86.00;;;;;;6098437;23;20012;-73
2021/03/17 06:47:09;;;;;;;9.90;5.07;;;5.70;86.30;;;;;;6122018;23;20005;-73
2021/03/17 06:49:37;;;;;;;10.10;4.93;;;5.80;86.10;;;;;;6097532;23;20041;-76
2021/03/17 06:52:27;;;;;;;7.77;4.53;;;5.70;86.20;;;;;;6098372;23;20084;-73
2021/03/17 06:55:12;;;;;;;10.10;5.20;;;5.80;86.90;;;;;;6085337;23;20013;-73
2021/03/17 06:57:44;;;;;;;10.97;6.10;;;5.90;86.20;;;;;;6096820;23;20504;-74
2021/03/17 07:00:16;;;;;;;;;;;5.80;86.30;;;;;;6099032;23;20018;-73
2021/03/17 07:02:41;;;;;;;10.27;5.20;;;5.80;86.90;;;;;;6097395;23;19901;-74
2021/03/17 07:05:08;;;;;;;13.13;6.43;;;5.80;86.70;;;;;;6098049;23;20323;-73
2021/03/17 07:07:49;;;;;;;13.03;6.57;;;5.60;86.70;;;;;;6098099;23;20006;-76
2021/03/17 07:10:29;;;;;;;11.60;6.17;;;5.60;87.20;;;;;;6178346;23;20005;-73
2021/03/17 07:12:56;;;;;;;11.73;6.50;;;5.70;86.70;;;;;;6212639;23;20420;-73
2021/03/17 07:15:23;;;;;;;11.40;5.73;;;5.60;86.60;;;;;;6215233;23;20005;-73
2021/03/17 07:17:49;;;;;;;11.70;6.10;;;5.70;86.60;;;;;;6214422;23;20000;-73
2021/03/17 07:20:35;;;;;;;12.30;6.40;;;5.70;86.60;;;;;;6215068;23;20012;-74
2021/03/17 07:23:19;;;;;;;13.27;6.57;;;5.70;87.00;;;;;;6213013;23;20058;-73
2021/03/17 07:26:17;;;;;;;14.40;7.07;;;5.80;86.70;;;;;;6214017;23;19996;-73
2021/03/17 07:29:00;;;;;;;14.27;7.03;;;5.80;86.40;;;;;;6212407;23;20020;-74
2021/03/17 07:31:35;;;;;;;14.53;7.20;;;5.80;86.40;;;;;;6213232;23;20301;-75
2021/03/17 07:34:20;;;;;;;15.70;7.50;;;5.90;85.80;;;;;;6212402;23;20001;-75
2021/03/17 07:37:01;;;;;;;14.33;7.07;;;5.80;86.10;;;;;;6212052;23;20016;-74
2021/03/17 07:39:35;;;;;;;16.48;7.13;;;5.90;86.20;;;;;;6214441;23;20004;-74
2021/03/17 07:42:05;;;;;;;15.23;7.27;;;5.80;86.40;;;;;;6212424;23;20035;-74
2021/03/17 07:44:40;;;;;;;17.53;8.17;;;5.90;86.20;;;;;;6214757;23;19993;-75
2021/03/17 07:47:29;;;;;;;18.93;8.73;;;5.90;85.50;;;;;;6213478;23;20027;-75
2021/03/17 07:50:03;;;;;;;16.53;7.87;;;6.00;85.20;;;;;;6212628;23;20323;-75
2021/03/17 07:52:41;;;;;;;17.80;8.03;;;6.10;85.20;;;;;;6212847;23;20131;-75
2021/03/17 07:55:51;;;;;;;;;;;;;;;;;;;;;
2021/03/17 07:58:31;;;;;;;18.30;8.07;;;6.20;84.70;;;;;;6213761;23;20088;-74
2021/03/17 08:01:04;;;;;;;18.53;8.83;;;6.20;84.60;;;;;;6199322;23;20008;-74
2021/03/17 08:03:59;;;;;;;16.43;8.03;;;6.20;84.30;;;;;;6213083;23;20026;-74
2021/03/17 08:10:03;;;;;;;18.43;8.20;;;6.10;84.40;;;;;;6207067;23;20016;-75
2021/03/17 08:12:30;;;;;;;16.30;7.63;;;6.00;83.80;;;;;;6212550;23;20024;-74
2021/03/17 08:14:56;;;;;;;20.20;8.70;;;6.00;83.90;;;;;;6211963;23;20001;-75
2021/03/17 08:17:32;;;;;;;17.90;8.30;;;6.10;83.80;;;;;;6213491;23;20096;-75
2021/03/17 08:20:21;;;;;;;17.90;7.83;;;6.10;83.50;;;;;;6211826;23;19996;-75
2021/03/17 08:22:48;;;;;;;18.80;7.43;;;6.10;82.40;;;;;;6213149;23;20000;-75
2021/03/17 08:25:41;;;;;;;16.27;7.67;;;6.20;81.80;;;;;;6212818;23;20001;-75
2021/03/17 08:28:29;;;;;;;15.45;7.70;;;6.20;81.60;;;;;;6212697;23;20000;-74
2021/03/17 08:30:56;;;;;;;15.67;7.50;;;6.40;81.30;;;;;;6211871;23;20001;-75
2021/03/17 08:33:41;;;;;;;17.77;7.83;;;6.60;80.80;;;;;;6214272;23;20152;-75
2021/03/17 08:36:15;;;;;;;17.33;8.27;;;6.60;80.20;;;;;;6212720;23;20467;-74
2021/03/17 08:38:55;;;;;;;18.80;8.77;;;6.60;79.50;;;;;;6211989;23;20005;-75
2021/03/17 08:41:42;;;;;;;17.63;8.17;;;6.60;78.70;;;;;;6212683;23;20012;-74
2021/03/17 08:44:15;;;;;;;17.60;8.00;;;6.50;78.80;;;;;;6214399;23;20034;-74
2021/03/17 08:46:41;;;;;;;15.60;8.30;;;6.40;79.30;;;;;;6213807;23;20042;-75
2021/03/17 08:49:11;;;;;;;16.40;8.17;;;6.50;79.10;;;;;;6212957;23;20004;-74
2021/03/17 08:51:51;;;;;;;17.00;8.17;;;6.60;78.60;;;;;;6213985;23;20039;-75
2021/03/17 08:54:35;;;;;;;16.73;8.03;;;6.80;78.10;;;;;;6214701;23;20000;-74
2021/03/17 08:57:01;;;;;;;15.20;7.67;;;7.00;76.30;;;;;;6215564;23;20001;-74
2021/03/17 08:59:46;;;;;;;15.80;7.60;;;7.10;76.80;;;;;;6214879;23;20013;-74
2021/03/17 09:02:17;;;;;;;16.97;7.63;;;7.20;76.90;;;;;;6216552;23;20004;-74
2021/03/17 09:04:44;;;;;;;14.65;6.93;;;7.30;75.50;;;;;;6215546;23;19996;-74
2021/03/17 09:07:10;;;;;;;20.33;8.23;;;7.40;75.50;;;;;;6214798;23;20568;-74
2021/03/17 09:09:54;;;;;;;18.60;9.00;;;7.50;76.30;;;;;;6214712;23;20091;-74
2021/03/17 09:12:26;;;;;;;16.43;8.33;;;7.60;74.60;;;;;;6214712;23;20000;-74
2021/03/17 09:15:16;;;;;;;21.25;9.18;;;7.70;73.60;;;;;;6214026;23;20076;-74
2021/03/17 09:17:44;;;;;;;14.57;7.50;;;7.90;74.30;;;;;;6201483;23;20009;-75
2021/03/17 09:20:24;;;;;;;15.50;7.80;;;7.90;72.40;;;;;;6216069;23;20004;-74
2021/03/17 09:23:07;;;;;;;15.63;7.50;;;7.80;71.20;;;;;;6213376;23;19997;-76
2021/03/17 09:25:36;;;;;;;18.00;7.67;;;7.80;72.70;;;;;;6214902;23;20092;-75
2021/03/17 09:28:04;;;;;;;16.30;7.23;;;7.80;73.00;;;;;;6215393;23;20000;-75
2021/03/17 09:30:37;;;;;;;15.27;7.03;;;7.90;73.30;;;;;;6216577;23;19993;-75
2021/03/17 09:33:10;;;;;;;17.63;8.00;;;7.90;72.50;;;;;;6215371;23;20028;-74
2021/03/17 09:35:36;;;;;;;17.37;8.10;;;7.80;72.40;;;;;;6217141;23;20007;-75
2021/03/17 09:38:11;;;;;;;15.70;7.37;;;7.90;72.20;;;;;;6217586;23;20012;-74
2021/03/17 09:40:44;;;;;;;16.03;7.37;;;7.90;70.30;;;;;;6219183;23;20036;-76
2021/03/17 09:43:29;;;;;;;16.50;7.47;;;8.00;70.10;;;;;;6219662;23;20324;-75
2021/03/17 09:45:56;;;;;;;16.50;7.73;;;8.00;70.30;;;;;;6218661;23;20000;-75
2021/03/17 09:48:21;;;;;;;18.80;7.57;;;8.00;69.00;;;;;;6218842;23;20004;-73
2021/03/17 09:50:54;;;;;;;16.90;7.80;;;7.90;67.80;;;;;;6218287;23;20027;-76
2021/03/17 09:53:19;;;;;;;15.33;7.17;;;8.00;68.20;;;;;;6218490;23;20000;-74
2021/03/17 09:55:45;;;;;;;14.37;7.13;;;8.10;68.60;;;;;;6218479;23;20011;-74
2021/03/17 09:58:11;;;;;;;11.73;6.67;;;8.00;69.00;;;;;;6245364;23;20086;-75
2021/03/17 10:00:37;;;;;;;14.00;7.10;;;8.00;70.20;;;;;;6220124;23;20012;-75
2021/03/17 10:03:11;;;;;;;16.17;8.70;;;8.10;70.00;;;;;;6219019;23;20011;-77
2021/03/17 10:05:37;;;;;;;14.20;7.30;;;8.20;68.50;;;;;;6220223;23;20000;-77
2021/03/17 10:08:03;;;;;;;19.30;9.70;;;8.30;68.80;;;;;;6219317;23;20011;-75
2021/03/17 10:10:29;;;;;;;13.70;6.60;;;8.40;67.90;;;;;;6246222;23;20004;-76
2021/03/17 10:12:55;;;;;;;13.53;6.53;;;8.40;68.30;;;;;;6245812;23;20327;-75
2021/03/17 10:15:24;;;;;;;17.93;6.97;;;8.40;67.90;;;;;;6219527;23;20050;-74
2021/03/17 10:17:52;;;;;;;12.83;6.50;;;8.40;67.50;;;;;;6245695;23;20450;-74
2021/03/17 10:20:21;;;;;;;13.63;6.50;;;8.40;68.00;;;;;;6246510;23;20000;-75
2021/03/17 10:22:48;;;;;;;12.43;5.37;;;8.40;66.00;;;;;;6218814;23;20010;-74
2021/03/17 10:25:20;;;;;;;11.00;5.10;;;8.20;65.10;;;;;;6246292;23;20000;-74
2021/03/17 10:27:56;;;;;;;10.75;5.25;;;8.30;65.30;;;;;;6246160;23;20435;-76
2021/03/17 10:30:35;;;;;;;11.67;5.57;;;8.30;66.10;;;;;;6219416;23;20004;-76
2021/03/17 10:33:02;;;;;;;11.23;5.88;;;8.40;64.80;;;;;;6218903;23;20000;-75
2021/03/17 10:35:33;;;;;;;11.47;5.47;;;8.20;66.00;;;;;;6219183;23;20000;-74
2021/03/17 10:38:00;;;;;;;9.40;4.88;;;8.40;66.70;;;;;;6218445;23;20444;-75
2021/03/17 10:40:27;;;;;;;7.80;4.60;;;8.50;67.20;;;;;;6219478;23;20040;-74
2021/03/17 10:42:58;;;;;;;8.07;4.17;;;8.40;66.20;;;;;;6218375;23;20035;-76
2021/03/17 10:45:28;;;;;;;9.53;4.47;;;8.40;67.00;;;;;;6219127;23;20058;-75
2021/03/17 10:47:54;;;;;;;7.90;4.57;;;8.40;67.10;;;;;;6245000;23;20000;-75
2021/03/17 10:50:34;;;;;;;10.00;4.20;;;8.50;66.10;;;;;;6219059;23;20004;-74
2021/03/17 10:53:00;;;;;;;8.20;4.25;;;8.50;66.00;;;;;;6218176;23;20156;-75
2021/03/17 10:55:28;;;;;;;9.70;4.40;;;8.40;66.30;;;;;;6218562;23;20011;-74
2021/03/17 10:58:13;;;;;;;9.57;4.30;;;8.30;66.90;;;;;;6245716;23;20008;-77
2021/03/17 11:00:39;;;;;;;13.47;4.50;;;8.30;66.70;;;;;;6218703;23;20004;-75
2021/03/17 11:03:21;;;;;;;11.70;4.47;;;8.30;67.30;;;;;;6218614;23;20399;-75
2021/03/17 11:05:47;;;;;;;8.75;3.33;;;8.00;68.20;;;;;;6217860;23;20004;-75
2021/03/17 11:08:13;;;;;;;8.20;3.23;;;7.80;65.90;;;;;;6245938;23;20497;-74
2021/03/17 11:10:39;;;;;;;8.13;3.40;;;7.80;66.70;;;;;;6245188;23;20028;-78
2021/03/17 11:13:16;;;;;;;6.83;3.10;;;7.80;68.20;;;;;;6244472;23;20491;-76
2021/03/17 11:15:50;;;;;;;6.47;2.97;;;7.90;68.30;;;;;;6244696;23;19996;-76
2021/03/17 11:18:51;;;;;;;4.53;2.70;;;7.90;68.20;;;;;;6219051;23;20008;-75
2021/03/17 11:21:22;;;;;;;7.03;3.90;;;7.90;68.00;;;;;;6238975;23;20000;-75
2021/03/17 11:23:48;;;;;;;6.90;3.20;;;7.90;68.60;;;;;;6218560;23;20011;-76
2021/03/17 11:26:23;;;;;;;7.07;3.17;;;7.90;68.80;;;;;;6219167;23;20229;-76
2021/03/17 11:28:50;;;;;;;5.47;2.90;;;8.00;69.20;;;;;;6218294;23;20051;-76
2021/03/17 11:31:35;;;;;;;6.60;3.10;;;8.00;69.50;;;;;;6219311;23;20004;-76
2021/03/17 11:34:02;;;;;;;6.13;2.80;;;8.00;70.10;;;;;;6217547;23;20000;-76
2021/03/17 11:36:29;;;;;;;6.27;3.60;;;7.80;71.00;;;;;;6245573;23;20012;-75
2021/03/17 11:38:57;;;;;;;9.17;3.83;;;7.70;71.80;;;;;;6245129;23;20053;-75
2021/03/17 11:41:25;;;;;;;10.37;4.57;;;7.60;72.60;;;;;;6245574;23;20313;-75
2021/03/17 11:43:50;;;;;;;4.47;2.30;;;7.50;73.50;;;;;;6245165;23;19996;-75
2021/03/17 11:46:17;;;;;;;4.20;2.40;;;7.60;73.80;;;;;;6218879;23;20023;-75
2021/03/17 11:48:44;;;;;;;3.27;2.47;;;7.60;74.50;;;;;;6218116;23;20008;-76
2021/03/17 11:51:10;;;;;;;3.40;2.47;;;7.60;72.90;;;;;;6244737;23;20435;-74
2021/03/17 11:53:37;;;;;;;3.13;2.13;;;7.40;74.20;;;;;;6218566;23;20007;-76
2021/03/17 11:56:04;;;;;;;3.03;1.60;;;7.20;75.30;;;;;;6217998;23;20018;-76
2021/03/17 11:58:29;;;;;;;4.30;1.90;;;7.30;74.40;;;;;;6218440;23;20008;-75
2021/03/17 12:00:55;;;;;;;3.30;1.90;;;7.40;75.00;;;;;;6217164;23;20087;-75
2021/03/17 12:03:21;;;;;;;2.77;1.87;;;7.50;74.80;;;;;;6218847;23;20001;-76
2021/03/17 12:05:47;;;;;;;3.03;1.90;;;7.60;75.20;;;;;;6244473;23;20034;-75
2021/03/17 12:08:13;;;;;;;3.00;1.80;;;7.70;74.40;;;;;;6218241;23;20016;-74
2021/03/17 12:10:42;;;;;;;3.77;2.00;;;8.00;73.70;;;;;;6244546;23;20016;-75
2021/03/17 12:13:08;;;;;;;3.40;1.80;;;8.10;72.40;;;;;;6217797;23;19996;-75
2021/03/17 12:15:34;;;;;;;2.77;1.70;;;8.30;72.00;;;;;;6218096;23;20019;-75
2021/03/17 12:18:00;;;;;;;3.27;1.80;;;8.50;71.70;;;;;;6217160;23;20470;-75
2021/03/17 12:20:28;;;;;;;2.90;1.90;;;8.80;72.60;;;;;;6218100;23;20004;-76
2021/03/17 12:22:54;;;;;;;3.03;1.60;;;8.80;70.70;;;;;;6243803;23;20140;-75
2021/03/17 12:25:21;;;;;;;1.77;0.70;;;8.90;72.10;;;;;;6218480;23;20071;-76
2021/03/17 12:27:47;;;;;;;1.35;0.60;;;9.00;70.30;;;;;;6244587;23;20324;-76
2021/03/17 12:30:15;;;;;;;1.55;0.70;;;9.00;69.60;;;;;;6217900;23;20419;-75
2021/03/17 12:32:43;;;;;;;1.08;0.45;;;9.20;71.00;;;;;;6216994;23;20000;-75
2021/03/17 12:35:11;;;;;;;0.73;0.30;;;9.20;70.00;;;;;;6245006;23;20416;-74
2021/03/17 12:37:38;;;;;;;0.30;0.20;;;9.00;71.40;;;;;;6217780;23;20019;-75
2021/03/17 12:40:06;;;;;;;0.17;0.17;;;8.90;69.40;;;;;;6217877;23;20035;-76
2021/03/17 12:42:32;;;;;;;0.57;0.43;;;9.00;69.00;;;;;;6217957;23;20024;-75
2021/03/17 12:44:57;;;;;;;0.68;0.30;;;9.30;69.20;;;;;;6217860;23;20011;-77
2021/03/17 12:47:23;;;;;;;0.47;0.20;;;9.50;67.90;;;;;;6218161;23;20004;-77
2021/03/17 12:49:49;;;;;;;1.08;0.40;;;9.70;66.70;;;;;;6244074;23;20296;-77
2021/03/17 12:52:14;;;;;;;1.13;0.40;;;10.00;68.10;;;;;;6218163;23;20000;-77
2021/03/17 12:54:40;;;;;;;0.98;0.50;;;10.20;65.60;;;;;;6217941;23;20416;-79
2021/03/17 12:57:07;;;;;;;0.85;0.50;;;10.40;64.60;;;;;;6245006;23;20308;-77
2021/03/17 12:59:33;;;;;;;1.85;0.60;;;10.60;63.50;;;;;;6245143;23;20004;-76
2021/03/17 13:01:59;;;;;;;0.60;0.50;;;10.90;62.50;;;;;;6217451;23;20004;-76
2021/03/17 13:04:24;;;;;;;1.30;0.50;;;11.10;63.80;;;;;;6218322;23;20340;-77
2021/03/17 13:06:50;;;;;;;0.82;0.60;;;11.30;61.00;;;;;;6218701;23;20004;-78
2021/03/17 13:09:15;;;;;;;1.40;0.80;;;11.60;60.70;;;;;;6247128;23;20004;-81
2021/03/17 13:11:41;;;;;;;1.98;1.45;;;12.00;58.60;;;;;;6219841;23;20095;-87
2021/03/17 13:14:08;;;;;;;1.10;0.77;;;12.50;56.10;;;;;;6245370;23;20359;-79
2021/03/17 13:16:35;;;;;;;1.30;1.00;;;13.30;56.20;;;;;;6218581;23;20001;-78
2021/03/17 13:19:00;;;;;;;0.80;0.80;;;13.90;53.10;;;;;;6217614;23;20012;-79